Etusivu
METAR-TAF:

METAR-TAF

Lentoasemat :

Sotilaslentoasema

Hachinohe, Japani

Leveyspiiri: 40-33N, Pituuspiiri: 141-28E, korkeus merenpinnasta: 46 m

Tämänhetkinen sää

Tämä raportti tehtiin 1 tunti ja 52 minuuttia sitten, kello 00.13 UTC
Tuuli 6 kn idästä
Lämpötila 16°C
Kosteus 77%
Ilmanpaine 1004 hPa
Näkyvyys 10 km tai enemmän
Muutamia pilviä 800 ft:n korkeudessa
Hajanaisia pilviä 1200 ft:n korkeudessa
Hajonneita pilviä 2000 ft:n korkeudessa

METAR: RJSH 290013Z 08006KT 9999 FEW008 SCT012 BKN020 16/12 Q1004 RMK 1ST008 4ST012 7CU020 A2965

Aika: 11:05 (02:05 UTC)


TAF: puuttuu

Säähavainnot ja -ennusteet yli 4000 lentoasemalta (METAR- ja TAF-raportit).

Käytössä olevat sääasemat on merkitty karttaan keltaisilla ja punaisilla pisteillä.

Aseta hiiri pisteen päälle nähdäksesi sääaseman nimen.

Klikkaa sitten nähdäksesi säähavainnot ja -ennusteet.

Kartan vaihtaminen: klikkaa mustalla rastilla varustettuja vihreitä pisteitä, niin voit zoomata sisään; viivalla varustettua vihreää pistettä, niin voit zoomata ulos tai vihreitä nuolia, niin pääset viereisille kartoille.


METAR-TAF: